createdAt,value
2019-01-13T00:01:55.466Z,19.10
2019-01-13T00:04:24.465Z,18.63
2019-01-13T00:06:53.781Z,20.97
2019-01-13T00:09:22.989Z,20.17
2019-01-13T00:11:52.117Z,25.33
2019-01-13T00:14:21.687Z,21.73
2019-01-13T00:16:50.782Z,23.30
2019-01-13T00:19:19.569Z,17.83
2019-01-13T00:21:48.631Z,19.07
2019-01-13T00:24:18.323Z,18.10
2019-01-13T00:26:48.167Z,15.60
2019-01-13T00:29:17.377Z,23.70
2019-01-13T00:31:46.158Z,18.57
2019-01-13T00:34:15.133Z,16.70
2019-01-13T00:36:43.997Z,23.90
2019-01-13T00:39:13.101Z,15.73
2019-01-13T00:41:42.000Z,15.77
2019-01-13T00:44:10.951Z,16.60
2019-01-13T00:46:40.151Z,26.93
2019-01-13T00:49:09.254Z,18.77
2019-01-13T00:51:38.347Z,16.20
2019-01-13T00:54:07.367Z,21.87
2019-01-13T00:56:36.764Z,14.03
2019-01-13T00:59:05.982Z,11.77
2019-01-13T01:01:35.102Z,21.60
2019-01-13T01:04:04.255Z,19.17
2019-01-13T01:06:33.228Z,20.07
2019-01-13T01:09:02.180Z,21.93
2019-01-13T01:11:31.319Z,16.60
2019-01-13T01:14:00.128Z,19.83
2019-01-13T01:16:29.257Z,16.40
2019-01-13T01:18:58.101Z,18.50
2019-01-13T01:21:27.324Z,17.77
2019-01-13T01:23:56.178Z,16.73
2019-01-13T01:26:25.262Z,17.23
2019-01-13T01:28:54.041Z,15.73
2019-01-13T01:31:22.914Z,18.93
2019-01-13T01:33:51.773Z,11.70
2019-01-13T01:36:20.741Z,13.97
2019-01-13T01:38:50.028Z,13.43
2019-01-13T01:41:19.414Z,15.70
2019-01-13T01:43:48.190Z,13.93
2019-01-13T01:46:17.044Z,12.10
2019-01-13T01:48:45.848Z,13.97
2019-01-13T01:51:14.625Z,14.00
2019-01-13T01:53:43.603Z,19.07
2019-01-13T01:56:12.579Z,13.73
2019-01-13T01:58:41.654Z,19.03
2019-01-13T02:01:10.831Z,18.00
2019-01-13T02:03:39.854Z,16.90
2019-01-13T02:06:09.006Z,18.90
2019-01-13T02:08:38.242Z,15.37
2019-01-13T02:11:07.713Z,17.00
2019-01-13T02:13:36.569Z,12.33
2019-01-13T02:16:05.498Z,21.40
2019-01-13T02:18:34.292Z,12.23
2019-01-13T02:21:03.207Z,11.00
2019-01-13T02:23:31.990Z,12.17
2019-01-13T02:26:00.844Z,17.50
2019-01-13T02:28:29.586Z,9.63
2019-01-13T02:30:58.468Z,5.87
2019-01-13T02:33:27.498Z,8.50
2019-01-13T02:35:56.839Z,8.40
2019-01-13T02:38:25.765Z,11.13
2019-01-13T02:40:54.683Z,8.50
2019-01-13T02:43:23.525Z,5.67
2019-01-13T02:45:52.315Z,9.70
2019-01-13T02:48:21.376Z,10.23
2019-01-13T02:50:50.505Z,7.00
2019-01-13T02:53:20.937Z,6.33
2019-01-13T02:55:50.139Z,6.93
2019-01-13T02:58:18.927Z,8.77
2019-01-13T03:00:47.791Z,6.57
2019-01-13T03:03:16.687Z,5.83
2019-01-13T03:05:45.900Z,7.27
2019-01-13T03:08:14.773Z,10.97
2019-01-13T03:10:43.658Z,7.33
2019-01-13T03:13:13.002Z,12.00
2019-01-13T03:15:41.761Z,5.50
2019-01-13T03:18:10.968Z,12.33
2019-01-13T03:20:39.806Z,7.40
2019-01-13T03:23:08.693Z,10.30
2019-01-13T03:25:37.651Z,16.17
2019-01-13T03:28:07.467Z,12.73
2019-01-13T03:30:36.503Z,11.73
2019-01-13T03:33:05.719Z,16.97
2019-01-13T03:35:34.541Z,14.30
2019-01-13T03:38:04.372Z,12.70
2019-01-13T03:40:33.352Z,12.20
2019-01-13T03:43:02.262Z,16.70
2019-01-13T03:45:31.273Z,15.30
2019-01-13T03:48:00.157Z,18.43
2019-01-13T03:50:28.914Z,17.50
2019-01-13T03:52:57.747Z,13.87
2019-01-13T03:55:26.792Z,13.40
2019-01-13T03:57:55.764Z,17.77
2019-01-13T04:00:26.158Z,12.80
2019-01-13T04:02:55.116Z,11.17
2019-01-13T04:05:24.089Z,15.07
2019-01-13T04:07:53.665Z,15.27
2019-01-13T04:10:40.796Z,18.37
2019-01-13T04:13:09.800Z,21.30
2019-01-13T04:16:07.442Z,18.67
2019-01-13T04:18:36.462Z,14.17
2019-01-13T04:21:05.545Z,23.10
2019-01-13T04:23:34.665Z,12.93
2019-01-13T04:26:03.648Z,16.87
2019-01-13T04:29:14.252Z,15.33
2019-01-13T04:31:43.518Z,15.07
2019-01-13T04:34:12.330Z,15.20
2019-01-13T04:36:41.223Z,11.93
2019-01-13T04:39:10.100Z,11.03
2019-01-13T04:41:38.908Z,16.77
2019-01-13T04:44:07.828Z,19.47
2019-01-13T04:46:38.628Z,18.23
2019-01-13T04:49:07.527Z,17.30
2019-01-13T04:51:36.374Z,14.57
2019-01-13T04:54:05.721Z,16.43
2019-01-13T04:56:34.591Z,13.00
2019-01-13T04:59:03.518Z,11.03
2019-01-13T05:01:34.845Z,12.40
2019-01-13T05:04:03.492Z,10.60
2019-01-13T05:06:32.641Z,16.13
2019-01-13T05:09:01.491Z,20.97
2019-01-13T05:11:30.665Z,21.53
2019-01-13T05:13:59.620Z,14.53
2019-01-13T05:16:28.509Z,9.97
2019-01-13T05:18:57.709Z,13.40
2019-01-13T05:21:26.527Z,7.60
2019-01-13T05:23:55.425Z,13.57
2019-01-13T05:26:24.379Z,10.30
2019-01-13T05:28:53.192Z,6.80
2019-01-13T05:31:22.011Z,10.27
2019-01-13T05:33:50.901Z,7.90
2019-01-13T05:36:19.954Z,11.63
2019-01-13T05:38:48.819Z,7.20
2019-01-13T05:41:17.826Z,5.50
2019-01-13T05:43:46.761Z,7.37
2019-01-13T05:46:15.592Z,7.10
2019-01-13T05:48:44.349Z,5.63
2019-01-13T05:51:13.419Z,4.27
2019-01-13T05:53:42.438Z,4.80
2019-01-13T05:56:11.215Z,10.00
2019-01-13T05:58:40.217Z,6.10
2019-01-13T06:01:09.637Z,10.30
2019-01-13T06:03:38.538Z,9.67
2019-01-13T06:06:07.506Z,9.60
2019-01-13T06:08:37.311Z,11.17
2019-01-13T06:11:06.338Z,10.00
2019-01-13T06:13:35.148Z,10.17
2019-01-13T06:16:04.310Z,13.83
2019-01-13T06:18:33.177Z,14.00
2019-01-13T06:21:02.080Z,18.00
2019-01-13T06:23:31.159Z,16.57
2019-01-13T06:26:00.026Z,15.43
2019-01-13T06:28:29.127Z,7.03
2019-01-13T06:30:58.034Z,13.97
2019-01-13T06:33:26.921Z,13.13
2019-01-13T06:35:55.834Z,15.97
2019-01-13T06:38:25.336Z,17.37
2019-01-13T06:40:54.344Z,19.20
2019-01-13T06:43:23.144Z,12.23
2019-01-13T06:45:52.047Z,9.47
2019-01-13T06:48:21.135Z,18.57
2019-01-13T06:50:50.054Z,13.03
2019-01-13T06:53:18.880Z,17.00
2019-01-13T06:55:48.031Z,13.87
2019-01-13T06:58:17.172Z,12.33
2019-01-13T07:00:46.081Z,10.93
2019-01-13T07:03:15.014Z,12.07
2019-01-13T07:05:43.795Z,10.37
2019-01-13T07:08:12.978Z,11.97
2019-01-13T07:10:41.906Z,7.03
2019-01-13T07:13:10.885Z,7.50
2019-01-13T07:15:39.812Z,8.23
2019-01-13T07:18:09.720Z,10.07
2019-01-13T07:20:38.662Z,5.47
2019-01-13T07:23:07.893Z,9.43
2019-01-13T07:25:36.797Z,12.17
2019-01-13T07:28:05.868Z,6.30
2019-01-13T07:30:34.792Z,15.33
2019-01-13T07:33:03.814Z,15.90
2019-01-13T07:35:32.688Z,13.60
2019-01-13T07:38:01.767Z,7.93
2019-01-13T07:40:30.627Z,9.30
2019-01-13T07:42:59.437Z,8.17
2019-01-13T07:45:29.633Z,7.60
2019-01-13T07:47:58.671Z,5.87
2019-01-13T07:50:33.051Z,11.00
2019-01-13T07:53:07.115Z,8.83
2019-01-13T07:55:36.024Z,5.13
2019-01-13T07:58:21.395Z,6.70
2019-01-13T08:00:50.344Z,8.00
2019-01-13T08:03:19.102Z,7.07
2019-01-13T08:05:48.027Z,8.57
2019-01-13T08:08:16.973Z,11.27
2019-01-13T08:10:46.090Z,10.50
2019-01-13T08:13:14.877Z,6.80
2019-01-13T08:15:43.757Z,5.30
2019-01-13T08:18:12.664Z,6.37
2019-01-13T08:20:41.524Z,7.93
2019-01-13T08:23:14.004Z,4.00
2019-01-13T08:25:43.197Z,5.17
2019-01-13T08:28:16.269Z,4.43
2019-01-13T08:30:45.308Z,3.47
2019-01-13T08:33:26.319Z,3.80
2019-01-13T08:35:55.251Z,3.07
2019-01-13T08:38:24.105Z,2.23
2019-01-13T08:40:52.982Z,7.10
2019-01-13T08:43:22.073Z,1.87
2019-01-13T08:45:51.015Z,3.80
2019-01-13T08:48:20.105Z,2.20
2019-01-13T08:50:49.033Z,3.83
2019-01-13T08:53:18.153Z,2.63
2019-01-13T08:55:47.064Z,2.33
2019-01-13T08:58:16.029Z,2.33
2019-01-13T09:00:44.900Z,2.60
2019-01-13T09:03:14.163Z,2.47
2019-01-13T09:05:46.746Z,2.53
2019-01-13T09:08:15.727Z,2.17
2019-01-13T09:10:44.603Z,3.60
2019-01-13T09:13:19.628Z,4.07
2019-01-13T09:16:04.074Z,3.87
2019-01-13T09:18:33.047Z,2.67
2019-01-13T09:21:02.405Z,2.57
2019-01-13T09:23:31.173Z,1.90
2019-01-13T09:26:00.094Z,1.67
2019-01-13T09:28:28.876Z,2.57
2019-01-13T09:30:57.682Z,2.67
2019-01-13T09:33:26.476Z,3.77
2019-01-13T09:35:55.352Z,2.57
2019-01-13T09:38:24.168Z,2.20
2019-01-13T09:41:04.664Z,2.57
2019-01-13T09:43:37.591Z,2.43
2019-01-13T09:46:06.448Z,1.77
2019-01-13T09:48:35.599Z,1.50
2019-01-13T09:51:04.590Z,2.83
2019-01-13T09:53:33.545Z,1.93
2019-01-13T09:56:05.117Z,1.23
2019-01-13T09:58:34.573Z,1.37
2019-01-13T10:01:03.434Z,1.13
2019-01-13T10:03:32.237Z,1.10
2019-01-13T10:06:01.128Z,1.73
2019-01-13T10:08:35.905Z,1.07
2019-01-13T10:11:04.852Z,2.30
2019-01-13T10:13:33.738Z,2.40
2019-01-13T10:16:02.603Z,1.20
2019-01-13T10:18:33.952Z,1.13
2019-01-13T10:21:02.913Z,1.07
2019-01-13T10:23:32.126Z,1.60
2019-01-13T10:26:00.955Z,1.00
2019-01-13T10:28:30.051Z,1.50
2019-01-13T10:31:03.156Z,0.60
2019-01-13T10:33:29.456Z,0.90
2019-01-13T10:35:58.367Z,1.40
2019-01-13T10:38:27.218Z,0.50
2019-01-13T10:40:56.108Z,0.83
2019-01-13T10:43:25.106Z,2.10
2019-01-13T10:45:53.901Z,2.40
2019-01-13T10:48:23.043Z,0.90
2019-01-13T10:50:52.339Z,1.03
2019-01-13T10:53:21.459Z,0.87
2019-01-13T10:55:50.338Z,1.00
2019-01-13T10:58:19.163Z,1.43
2019-01-13T11:00:47.990Z,1.20
2019-01-13T11:03:17.531Z,2.47
2019-01-13T11:05:46.597Z,1.77
2019-01-13T11:08:15.453Z,3.23
2019-01-13T11:10:44.514Z,2.80
2019-01-13T11:13:13.900Z,4.50
2019-01-13T11:15:43.475Z,1.77
2019-01-13T11:18:13.219Z,2.13
2019-01-13T11:20:42.268Z,2.40
2019-01-13T11:23:11.378Z,0.97
2019-01-13T11:25:40.620Z,1.33
2019-01-13T11:28:10.587Z,1.90
2019-01-13T11:30:39.735Z,3.87
2019-01-13T11:33:09.838Z,3.33
2019-01-13T11:35:39.655Z,2.60
2019-01-13T11:38:10.424Z,3.13
2019-01-13T11:40:39.449Z,4.13
2019-01-13T11:43:19.075Z,4.93
2019-01-13T11:45:47.957Z,2.57
2019-01-13T11:48:16.786Z,3.20
2019-01-13T11:50:45.846Z,2.53
2019-01-13T11:53:15.340Z,2.20
2019-01-13T11:55:44.302Z,4.67
2019-01-13T11:58:15.746Z,2.47
2019-01-13T12:00:46.091Z,6.50
2019-01-13T12:03:16.944Z,3.47
2019-01-13T12:05:46.247Z,3.60
2019-01-13T12:08:15.632Z,3.33
2019-01-13T12:10:44.619Z,2.40
2019-01-13T12:13:13.997Z,9.03
2019-01-13T12:15:42.819Z,8.73
2019-01-13T12:18:12.195Z,8.97
2019-01-13T12:20:41.384Z,8.70
2019-01-13T12:23:10.698Z,11.73
2019-01-13T12:25:42.263Z,6.50
2019-01-13T12:28:11.213Z,10.90
2019-01-13T12:30:40.466Z,12.77
2019-01-13T12:33:10.365Z,12.47
2019-01-13T12:35:39.501Z,8.50
2019-01-13T12:38:08.478Z,11.57
2019-01-13T12:40:37.492Z,14.00
2019-01-13T12:43:07.367Z,13.33
2019-01-13T12:45:36.344Z,15.47
2019-01-13T12:48:05.851Z,14.63
2019-01-13T12:50:34.781Z,15.63
2019-01-13T12:53:03.786Z,20.77
2019-01-13T12:55:32.662Z,14.33
2019-01-13T12:58:02.577Z,11.90
2019-01-13T13:00:31.647Z,13.50
2019-01-13T13:03:00.539Z,20.37
2019-01-13T13:05:29.618Z,15.93
2019-01-13T13:07:58.516Z,14.60
2019-01-13T13:10:32.953Z,14.70
2019-01-13T13:13:01.772Z,15.90
2019-01-13T13:15:30.696Z,19.47
2019-01-13T23:18:29.008Z,29.80
2019-01-13T23:20:57.967Z,27.50
2019-01-13T23:23:26.884Z,23.70
2019-01-13T23:25:55.797Z,25.40
2019-01-13T23:28:24.786Z,29.63
2019-01-13T23:30:53.599Z,22.60
2019-01-13T23:33:22.402Z,24.50
2019-01-13T23:35:51.254Z,22.63
2019-01-13T23:38:20.353Z,20.20
2019-01-13T23:40:49.679Z,28.47
2019-01-13T23:43:18.551Z,27.57
2019-01-13T23:45:47.442Z,29.57
2019-01-13T23:48:17.237Z,26.87
2019-01-13T23:50:46.030Z,28.97
2019-01-13T23:53:14.847Z,26.43
2019-01-13T23:55:43.607Z,14.67
2019-01-13T23:58:12.484Z,26.33
